createdAt,value
2018-05-27T00:01:27.474Z,89.80
2018-05-27T00:03:55.750Z,89.54
2018-05-27T00:06:24.003Z,89.39
2018-05-27T00:08:53.338Z,88.71
2018-05-27T00:11:21.595Z,89.09
2018-05-27T00:13:50.660Z,87.19
2018-05-27T00:16:18.903Z,87.81
2018-05-27T00:18:47.155Z,89.35
2018-05-27T00:21:16.183Z,89.80
2018-05-27T00:23:44.452Z,89.44
2018-05-27T00:26:12.705Z,88.38
2018-05-27T00:28:41.731Z,89.30
2018-05-27T00:31:09.987Z,88.92
2018-05-27T00:33:39.015Z,89.27
2018-05-27T00:36:07.263Z,90.19
2018-05-27T00:38:36.375Z,90.20
2018-05-27T00:41:04.634Z,89.88
2018-05-27T00:43:33.666Z,89.75
2018-05-27T00:46:02.585Z,90.13
2018-05-27T00:48:30.852Z,90.04
2018-05-27T00:50:59.117Z,89.77
2018-05-27T00:54:00.210Z,89.26
2018-05-27T00:56:29.259Z,89.79
2018-05-27T00:58:57.511Z,89.75
2018-05-27T01:01:26.632Z,89.98
2018-05-27T01:03:54.899Z,90.47
2018-05-27T01:06:23.181Z,91.00
2018-05-27T01:08:51.430Z,90.56
2018-05-27T01:11:20.468Z,90.58
2018-05-27T01:13:48.723Z,90.92
2018-05-27T01:16:17.755Z,91.24
2018-05-27T01:18:46.983Z,91.61
2018-05-27T01:21:15.246Z,91.59
2018-05-27T01:23:43.494Z,92.04
2018-05-27T01:26:11.763Z,91.82
2018-05-27T01:28:40.869Z,91.46
2018-05-27T01:31:09.916Z,91.59
2018-05-27T01:33:38.167Z,91.51
2018-05-27T01:36:06.435Z,91.27
2018-05-27T01:38:34.730Z,91.62
2018-05-27T01:41:03.005Z,91.77
2018-05-27T01:43:32.047Z,92.11
2018-05-27T01:46:00.380Z,91.45
2018-05-27T01:48:28.656Z,91.84
2018-05-27T01:50:57.759Z,92.11
2018-05-27T01:53:26.017Z,91.89
2018-05-27T01:55:55.065Z,92.20
2018-05-27T01:58:23.312Z,92.74
2018-05-27T02:00:52.859Z,92.44
2018-05-27T02:03:21.121Z,92.22
2018-05-27T02:05:49.401Z,92.43
2018-05-27T02:08:17.661Z,92.28
2018-05-27T02:10:46.767Z,92.28
2018-05-27T02:13:15.039Z,92.04
2018-05-27T02:15:44.073Z,92.38
2018-05-27T02:18:12.323Z,92.27
2018-05-27T02:20:40.601Z,92.57
2018-05-27T02:23:09.706Z,92.32
2018-05-27T02:25:37.980Z,92.63
2018-05-27T02:28:07.005Z,92.63
2018-05-27T02:30:35.422Z,91.02
2018-05-27T02:33:04.059Z,90.62
2018-05-27T02:35:32.464Z,91.82
2018-05-27T02:38:00.716Z,92.26
2018-05-27T02:40:29.757Z,92.59
2018-05-27T02:42:58.015Z,93.14
2018-05-27T02:45:26.271Z,93.41
2018-05-27T02:47:55.287Z,93.62
2018-05-27T02:50:23.547Z,93.37
2018-05-27T02:52:52.583Z,91.31
2018-05-27T02:55:20.851Z,92.15
2018-05-27T02:57:49.111Z,92.77
2018-05-27T03:00:18.156Z,92.94
2018-05-27T03:02:46.551Z,92.87
2018-05-27T03:05:16.439Z,93.33
2018-05-27T03:07:44.711Z,93.35
2018-05-27T03:10:12.971Z,92.91
2018-05-27T03:12:42.001Z,92.69
2018-05-27T03:15:10.265Z,92.90
2018-05-27T03:17:38.533Z,92.76
2018-05-27T03:20:07.555Z,92.80
2018-05-27T03:22:35.827Z,92.49
2018-05-27T03:25:04.099Z,92.80
2018-05-27T03:27:32.364Z,92.84
2018-05-27T03:30:01.381Z,93.17
2018-05-27T03:32:29.651Z,93.05
2018-05-27T03:34:58.659Z,92.56
2018-05-27T03:37:27.979Z,92.60
2018-05-27T03:39:56.226Z,92.46
2018-05-27T03:42:25.339Z,91.92
2018-05-27T03:44:53.593Z,91.32
2018-05-27T03:47:22.614Z,91.54
2018-05-27T03:49:50.883Z,91.57
2018-05-27T03:52:19.907Z,91.83
2018-05-27T03:54:48.166Z,91.62
2018-05-27T03:57:17.195Z,91.02
2018-05-27T03:59:45.459Z,91.23
2018-05-27T04:02:13.832Z,91.13
2018-05-27T04:05:03.296Z,90.96
2018-05-27T04:07:51.426Z,90.87
2018-05-27T04:10:20.452Z,90.64
2018-05-27T04:12:48.733Z,89.88
2018-05-27T04:15:16.993Z,89.61
2018-05-27T04:17:45.252Z,88.60
2018-05-27T04:20:14.266Z,86.35
2018-05-27T04:22:43.290Z,86.31
2018-05-27T04:25:11.550Z,86.99
2018-05-27T04:27:39.815Z,86.16
2018-05-27T04:30:08.847Z,86.29
2018-05-27T04:32:37.121Z,85.49
2018-05-27T04:35:05.369Z,84.35
2018-05-27T04:37:34.647Z,84.72
2018-05-27T04:40:03.692Z,83.79
2018-05-27T04:42:31.968Z,82.34
2018-05-27T04:45:01.003Z,81.47
2018-05-27T04:47:29.266Z,80.52
2018-05-27T04:49:57.527Z,77.23
2018-05-27T04:52:26.569Z,68.53
2018-05-27T04:54:54.827Z,58.97
2018-05-27T04:57:23.093Z,56.52
2018-05-27T04:59:51.347Z,55.46
2018-05-27T05:02:20.463Z,53.29
2018-05-27T05:04:49.489Z,46.70
2018-05-27T05:07:18.692Z,44.42
2018-05-27T05:09:46.960Z,42.32
2018-05-27T05:12:15.236Z,40.66
2018-05-27T05:14:43.487Z,43.29
2018-05-27T05:17:12.503Z,40.97
2018-05-27T05:19:40.770Z,40.25
2018-05-27T05:22:09.806Z,39.70
2018-05-27T05:24:38.080Z,38.25
2018-05-27T05:27:06.356Z,39.70
2018-05-27T05:29:34.624Z,39.72
2018-05-27T05:32:03.111Z,38.40
2018-05-27T05:34:31.388Z,35.74
2018-05-27T05:37:00.410Z,34.19
2018-05-27T05:39:29.503Z,34.22
2018-05-27T05:41:57.770Z,37.75
2018-05-27T05:44:26.797Z,40.31
2018-05-27T05:46:55.042Z,36.67
2018-05-27T05:49:24.062Z,34.48
2018-05-27T05:51:52.319Z,32.21
2018-05-27T05:54:21.360Z,33.86
2018-05-27T05:56:49.620Z,34.03
2018-05-27T05:59:17.875Z,33.93
2018-05-27T06:01:46.135Z,31.40
2018-05-27T06:04:15.173Z,33.41
2018-05-27T06:06:43.424Z,34.47
2018-05-27T06:09:12.467Z,32.39
2018-05-27T06:11:42.349Z,29.71
2018-05-27T06:14:11.388Z,31.48
2018-05-27T06:16:39.674Z,32.49
2018-05-27T06:19:07.930Z,30.50
2018-05-27T06:21:36.195Z,28.48
2018-05-27T06:24:04.465Z,31.19
2018-05-27T06:26:33.487Z,32.50
2018-05-27T06:29:01.764Z,28.19
2018-05-27T06:31:30.012Z,25.94
2018-05-27T06:33:59.047Z,26.63
2018-05-27T06:36:27.315Z,24.84
2018-05-27T06:38:55.582Z,28.05
2018-05-27T06:41:24.611Z,32.06
2018-05-27T06:43:54.938Z,28.46
2018-05-27T06:46:23.214Z,28.28
2018-05-27T06:48:51.475Z,27.50
2018-05-27T06:51:20.541Z,23.97
2018-05-27T06:53:48.767Z,26.59
2018-05-27T06:56:17.033Z,25.71
2018-05-27T06:58:46.060Z,29.17
2018-05-27T07:01:14.314Z,26.82
2018-05-27T07:03:42.590Z,27.35
2018-05-27T07:06:11.698Z,30.42
2018-05-27T07:08:39.953Z,33.38
2018-05-27T07:11:08.978Z,32.67
2018-05-27T07:13:37.234Z,31.46
2018-05-27T07:16:06.271Z,32.00
2018-05-27T07:18:34.531Z,30.07
2018-05-27T07:21:03.631Z,29.57
2018-05-27T07:23:31.901Z,28.76
2018-05-27T07:26:01.764Z,28.45
2018-05-27T07:28:30.024Z,29.52
2018-05-27T07:30:58.287Z,32.70
2018-05-27T07:33:27.399Z,33.04
2018-05-27T07:35:55.668Z,39.19
2018-05-27T07:38:26.007Z,39.06
2018-05-27T07:40:54.274Z,39.62
2018-05-27T07:43:23.291Z,36.96
2018-05-27T07:45:51.554Z,37.79
2018-05-27T07:48:19.810Z,37.49
2018-05-27T07:50:48.847Z,36.60
2018-05-27T07:53:17.536Z,37.83
2018-05-27T07:55:45.802Z,39.21
2018-05-27T07:58:14.130Z,39.24
2018-05-27T08:00:43.834Z,40.77
2018-05-27T08:03:12.183Z,40.65
2018-05-27T08:05:40.460Z,39.69
2018-05-27T08:08:09.479Z,40.40
2018-05-27T08:10:39.071Z,40.43
2018-05-27T08:13:07.330Z,42.32
2018-05-27T08:15:36.476Z,41.93
2018-05-27T08:18:04.734Z,41.33
2018-05-27T08:20:32.986Z,41.04
2018-05-27T08:23:02.028Z,42.27
2018-05-27T08:25:30.291Z,42.46
2018-05-27T08:27:59.311Z,40.71
2018-05-27T08:30:27.588Z,39.54
2018-05-27T08:32:56.563Z,38.81
2018-05-27T08:35:24.835Z,36.65
2018-05-27T08:37:53.860Z,36.55
2018-05-27T08:40:22.136Z,34.62
2018-05-27T08:42:53.263Z,33.58
2018-05-27T08:45:22.290Z,27.78
2018-05-27T08:47:50.547Z,26.85
2018-05-27T08:50:18.839Z,28.67
2018-05-27T08:52:47.099Z,24.61
2018-05-27T08:55:17.375Z,26.90
2018-05-27T08:57:45.636Z,26.66
2018-05-27T09:00:13.970Z,29.08
2018-05-27T09:02:42.994Z,31.36
2018-05-27T09:05:12.027Z,31.91
2018-05-27T09:07:40.284Z,29.63
2018-05-27T09:10:08.539Z,27.56
2018-05-27T09:12:37.576Z,30.77
2018-05-27T09:15:05.845Z,28.57
2018-05-27T09:17:34.116Z,27.85
2018-05-27T09:20:02.366Z,24.69
2018-05-27T09:22:31.408Z,23.08
2018-05-27T09:24:59.690Z,28.43
2018-05-27T09:27:27.950Z,24.19
2018-05-27T09:29:56.791Z,27.90
2018-05-27T09:32:25.060Z,25.61
2018-05-27T09:34:53.326Z,25.19
2018-05-27T09:37:21.587Z,25.51
2018-05-27T09:39:49.852Z,27.71
2018-05-27T09:42:18.887Z,28.76
2018-05-27T09:44:47.139Z,31.49
2018-05-27T09:47:16.166Z,31.55
2018-05-27T09:49:44.426Z,32.76
2018-05-27T09:52:13.459Z,32.96
2018-05-27T09:54:41.712Z,28.83
2018-05-27T09:57:10.198Z,31.51
2018-05-27T09:59:39.046Z,30.88
2018-05-27T10:02:08.116Z,25.81
2018-05-27T10:04:36.476Z,25.61
2018-05-27T10:07:04.739Z,28.11
2018-05-27T10:09:32.995Z,29.55
2018-05-27T10:12:02.037Z,28.00
2018-05-27T10:14:30.303Z,31.52
2018-05-27T10:16:58.566Z,30.40
2018-05-27T10:19:27.604Z,29.02
2018-05-27T10:21:56.115Z,30.17
2018-05-27T10:24:24.374Z,28.52
2018-05-27T10:26:52.623Z,27.31
2018-05-27T10:29:21.059Z,29.87
2018-05-27T10:31:49.336Z,26.78
2018-05-27T10:34:17.595Z,26.15
2018-05-27T10:36:45.871Z,23.81
2018-05-27T10:39:14.134Z,23.08
2018-05-27T10:41:43.159Z,22.25
2018-05-27T10:44:11.407Z,21.99
2018-05-27T10:46:39.675Z,23.20
2018-05-27T10:49:08.704Z,19.12
2018-05-27T10:51:36.969Z,20.66
2018-05-27T10:54:05.235Z,24.45
2018-05-27T10:56:35.183Z,26.65
2018-05-27T10:59:03.432Z,27.35
2018-05-27T11:01:34.495Z,25.46
2018-05-27T11:04:02.748Z,24.96
2018-05-27T11:06:31.789Z,24.03
2018-05-27T11:09:00.071Z,23.73
2018-05-27T11:11:28.331Z,26.63
2018-05-27T11:13:57.359Z,28.18
2018-05-27T11:16:25.625Z,21.58
2018-05-27T11:18:53.922Z,19.01
2018-05-27T11:21:22.163Z,24.88
2018-05-27T11:23:51.217Z,26.54
2018-05-27T11:26:19.451Z,24.14
2018-05-27T11:28:47.715Z,22.93
2018-05-27T11:31:16.830Z,22.39
2018-05-27T11:33:45.571Z,26.37
2018-05-27T11:36:13.824Z,26.84
2018-05-27T11:38:42.094Z,25.41
2018-05-27T11:41:10.357Z,22.46
2018-05-27T11:43:39.394Z,24.07
2018-05-27T11:46:07.650Z,24.63
2018-05-27T11:48:35.964Z,27.61
2018-05-27T11:51:04.940Z,27.67
2018-05-27T11:53:33.214Z,23.36
2018-05-27T11:56:01.469Z,19.55
2018-05-27T11:58:30.503Z,16.44
2018-05-27T12:00:58.756Z,16.41
2018-05-27T12:03:27.794Z,23.51
2018-05-27T12:05:56.045Z,21.55
2018-05-27T12:08:24.311Z,28.81
2018-05-27T12:10:53.567Z,31.71
2018-05-27T12:13:21.829Z,29.71
2018-05-27T12:15:50.078Z,28.21
2018-05-27T12:18:18.351Z,31.15
2018-05-27T12:20:47.379Z,31.58
2018-05-27T12:23:15.638Z,31.31
2018-05-27T12:25:43.920Z,32.64
2018-05-27T12:28:12.190Z,33.44
2018-05-27T12:30:41.211Z,31.63
2018-05-27T12:33:09.475Z,36.59
2018-05-27T12:35:38.492Z,34.30
2018-05-27T12:38:06.755Z,35.78
2018-05-27T12:40:35.024Z,33.63
2018-05-27T12:43:04.055Z,32.16
2018-05-27T12:45:32.314Z,30.79
2018-05-27T12:48:01.243Z,32.99
2018-05-27T12:50:29.594Z,32.96
2018-05-27T12:52:57.858Z,33.02
2018-05-27T12:55:26.886Z,33.43
2018-05-27T12:57:55.153Z,32.15
2018-05-27T13:00:23.416Z,34.81
2018-05-27T13:02:52.451Z,36.19
2018-05-27T13:05:20.699Z,33.98
2018-05-27T13:07:49.715Z,28.87
2018-05-27T13:10:17.988Z,28.56
2018-05-27T13:12:46.243Z,27.18
2018-05-27T13:15:15.282Z,28.89
2018-05-27T13:17:43.553Z,27.13
2018-05-27T13:20:11.815Z,29.57
2018-05-27T13:22:40.846Z,27.54
2018-05-27T13:25:09.116Z,26.19
2018-05-27T13:27:37.363Z,30.01
2018-05-27T13:30:05.709Z,27.81
2018-05-27T13:32:33.928Z,30.51
2018-05-27T13:35:02.963Z,32.05
2018-05-27T13:37:31.215Z,26.09
2018-05-27T13:40:00.247Z,26.30
2018-05-27T13:42:28.505Z,28.81
2018-05-27T13:44:56.808Z,29.89
2018-05-27T13:47:25.791Z,31.96
2018-05-27T13:49:54.067Z,28.20
2018-05-27T13:52:22.337Z,29.01
2018-05-27T13:54:51.359Z,32.70
2018-05-27T13:57:19.618Z,30.87
2018-05-27T13:59:47.899Z,30.61
2018-05-27T14:02:17.608Z,29.70
2018-05-27T14:04:46.769Z,31.80
2018-05-27T14:07:14.966Z,32.05
2018-05-27T14:09:44.009Z,32.87
2018-05-27T14:12:12.263Z,31.83
2018-05-27T14:14:41.291Z,32.41
2018-05-27T14:17:09.595Z,32.44
2018-05-27T14:19:38.574Z,33.44
2018-05-27T14:22:06.834Z,32.43
2018-05-27T14:24:35.107Z,33.72
2018-05-27T14:27:03.363Z,32.52
2018-05-27T14:29:31.633Z,33.10
2018-05-27T14:31:59.891Z,33.52
2018-05-27T14:34:28.221Z,33.43
2018-05-27T14:36:57.248Z,35.65
2018-05-27T14:39:25.514Z,35.05
2018-05-27T14:41:53.762Z,37.30
2018-05-27T14:44:22.811Z,37.82
2018-05-27T14:46:51.061Z,38.99
2018-05-27T14:49:20.092Z,39.57
2018-05-27T14:51:48.343Z,41.54
2018-05-27T14:54:16.632Z,42.47
2018-05-27T14:56:45.647Z,42.73
2018-05-27T14:59:13.920Z,42.03
2018-05-27T15:01:42.174Z,42.87
2018-05-27T15:04:11.229Z,42.07
2018-05-27T15:06:40.174Z,41.04
2018-05-27T15:09:09.211Z,42.74
2018-05-27T15:11:37.467Z,42.90
2018-05-27T15:14:06.023Z,41.79
2018-05-27T15:16:34.289Z,42.11
2018-05-27T15:19:03.323Z,43.13
2018-05-27T15:21:31.587Z,43.29
2018-05-27T15:24:00.603Z,42.87
2018-05-27T15:26:28.880Z,42.13
2018-05-27T15:28:57.915Z,42.63
2018-05-27T15:31:26.174Z,41.95
2018-05-27T15:33:54.455Z,45.92
2018-05-27T15:36:23.460Z,43.47
2018-05-27T15:38:53.879Z,42.79
2018-05-27T15:41:22.964Z,44.67
2018-05-27T15:43:51.987Z,42.64
2018-05-27T15:46:20.251Z,44.56
2018-05-27T15:48:48.498Z,42.62
2018-05-27T15:51:17.532Z,44.53
2018-05-27T15:53:45.809Z,43.08
2018-05-27T15:56:14.814Z,44.55
2018-05-27T15:58:43.082Z,43.45
2018-05-27T16:01:11.350Z,45.15
2018-05-27T16:03:40.373Z,38.86
2018-05-27T16:06:08.642Z,37.55
2018-05-27T16:08:36.899Z,36.67
2018-05-27T16:11:05.935Z,36.80
2018-05-27T16:13:34.187Z,37.09
2018-05-27T16:16:03.212Z,37.02
2018-05-27T16:18:31.489Z,37.28
2018-05-27T16:20:59.766Z,37.33
2018-05-27T16:23:28.011Z,37.32
2018-05-27T16:25:57.059Z,36.38
2018-05-27T16:28:25.327Z,36.97
2018-05-27T16:30:53.597Z,36.04
2018-05-27T16:33:21.851Z,36.84
2018-05-27T16:35:50.891Z,35.80
2018-05-27T16:38:19.155Z,35.65
2018-05-27T16:40:47.488Z,36.31
2018-05-27T16:43:16.332Z,36.54
2018-05-27T16:45:44.632Z,37.37
2018-05-27T16:48:12.897Z,37.53
2018-05-27T16:50:42.197Z,37.73
2018-05-27T16:53:10.479Z,38.72
2018-05-27T16:55:38.747Z,39.98
2018-05-27T16:58:07.770Z,39.18
2018-05-27T17:00:36.034Z,39.47
2018-05-27T17:03:05.060Z,40.16
2018-05-27T17:05:33.328Z,40.71
2018-05-27T17:08:01.596Z,41.12
2018-05-27T17:10:29.854Z,40.55
2018-05-27T17:12:58.951Z,41.62
2018-05-27T17:15:29.662Z,41.58
2018-05-27T17:17:57.947Z,42.13
2018-05-27T17:20:26.232Z,43.20
2018-05-27T17:22:54.523Z,42.83
2018-05-27T17:25:22.782Z,43.58
2018-05-27T17:27:51.035Z,44.67
2018-05-27T17:30:19.290Z,45.16
2018-05-27T17:32:48.394Z,46.22
2018-05-27T17:35:16.652Z,45.43
2018-05-27T17:37:45.691Z,44.51
2018-05-27T17:40:13.940Z,45.89
2018-05-27T17:42:42.966Z,45.88
2018-05-27T17:45:11.219Z,45.42
2018-05-27T17:47:41.692Z,46.04
2018-05-27T17:50:09.937Z,46.17
2018-05-27T17:52:39.041Z,46.04
2018-05-27T17:55:07.291Z,46.35
2018-05-27T17:57:36.327Z,46.89
2018-05-27T18:00:04.602Z,47.66
2018-05-27T18:02:32.864Z,47.97
2018-05-27T18:05:01.879Z,49.12
2018-05-27T18:07:30.137Z,49.34
2018-05-27T18:09:59.559Z,49.75
2018-05-27T18:12:27.826Z,50.79
2018-05-27T18:14:56.857Z,51.57
2018-05-27T18:17:25.115Z,52.20
2018-05-27T18:19:54.222Z,53.02
2018-05-27T18:22:22.497Z,53.72
2018-05-27T18:24:51.599Z,54.00
2018-05-27T18:27:20.632Z,54.55
2018-05-27T18:29:48.895Z,54.68
2018-05-27T18:32:17.159Z,54.93
2018-05-27T18:34:45.415Z,55.05
2018-05-27T18:37:15.195Z,55.55
2018-05-27T18:39:43.553Z,55.38
2018-05-27T18:42:11.820Z,55.75
2018-05-27T18:44:40.072Z,56.32
2018-05-27T18:47:09.099Z,59.26
2018-05-27T18:49:37.356Z,61.05
2018-05-27T18:52:05.883Z,63.18
2018-05-27T18:54:34.139Z,64.82
2018-05-27T18:57:02.403Z,62.44
2018-05-27T18:59:31.508Z,61.95
2018-05-27T19:02:00.541Z,62.30
2018-05-27T19:04:28.792Z,61.97
2018-05-27T19:06:57.822Z,66.36
2018-05-27T19:09:26.076Z,68.55
2018-05-27T19:11:54.347Z,69.90
2018-05-27T19:14:23.293Z,69.55
2018-05-27T19:16:51.563Z,70.40
2018-05-27T19:19:20.633Z,71.29
2018-05-27T19:21:48.903Z,72.39
2018-05-27T19:24:18.014Z,73.04
2018-05-27T19:26:46.548Z,73.27
2018-05-27T19:29:14.815Z,70.89
2018-05-27T19:31:43.068Z,70.18
2018-05-27T19:34:11.338Z,71.78
2018-05-27T19:36:39.599Z,73.58
2018-05-27T19:39:09.354Z,74.35
2018-05-27T19:41:37.618Z,75.25
2018-05-27T19:44:05.886Z,73.24
2018-05-27T19:46:34.919Z,74.15
2018-05-27T19:49:03.195Z,75.51
2018-05-27T19:51:32.271Z,77.38
2018-05-27T19:54:01.376Z,76.92
2018-05-27T19:56:29.627Z,77.81
2018-05-27T19:58:59.394Z,77.89
2018-05-27T20:01:28.163Z,78.30
2018-05-27T20:03:56.438Z,79.27
2018-05-27T20:06:25.455Z,78.77
2018-05-27T20:08:53.720Z,78.64
2018-05-27T20:11:21.974Z,79.51
2018-05-27T20:13:51.015Z,79.31
2018-05-27T20:16:19.275Z,79.52
2018-05-27T20:18:48.904Z,80.91
2018-05-27T20:21:17.154Z,81.01
2018-05-27T20:23:46.184Z,78.22
2018-05-27T20:26:14.431Z,79.56
2018-05-27T20:28:43.466Z,79.82
2018-05-27T20:31:11.722Z,79.66
2018-05-27T20:33:40.015Z,79.41
2018-05-27T20:36:08.258Z,78.40
2018-05-27T20:38:37.300Z,80.97
2018-05-27T20:41:05.556Z,80.77
2018-05-27T20:43:34.671Z,81.93
2018-05-27T20:46:02.919Z,82.30
2018-05-27T20:48:31.947Z,82.46
2018-05-27T20:51:00.211Z,83.13
2018-05-27T20:53:29.243Z,83.40
2018-05-27T20:55:57.502Z,83.84
2018-05-27T20:58:25.771Z,84.37
2018-05-27T21:00:54.801Z,83.84
2018-05-27T21:03:23.074Z,83.78
2018-05-27T21:05:51.331Z,84.55
2018-05-27T21:08:20.366Z,83.79
2018-05-27T21:10:48.616Z,84.57
2018-05-27T21:13:17.650Z,84.54
2018-05-27T21:15:45.909Z,84.39
2018-05-27T21:18:14.180Z,84.84
2018-05-27T21:20:42.430Z,83.45
2018-05-27T21:23:11.939Z,84.63
2018-05-27T21:25:40.963Z,85.12
2018-05-27T21:28:09.987Z,83.97
2018-05-27T21:30:38.347Z,83.81
2018-05-27T21:33:07.365Z,85.46
2018-05-27T21:35:35.641Z,83.40
2018-05-27T21:38:03.898Z,84.50
2018-05-27T21:40:32.940Z,85.07
2018-05-27T21:43:01.293Z,86.02
2018-05-27T21:45:29.547Z,86.45
2018-05-27T21:47:58.574Z,86.69
2018-05-27T21:50:26.826Z,87.37
2018-05-27T21:52:55.859Z,84.98
2018-05-27T21:55:24.119Z,86.03
2018-05-27T21:57:52.383Z,86.69
2018-05-27T22:00:21.402Z,87.13
2018-05-27T22:02:49.667Z,86.74
2018-05-27T22:05:18.689Z,85.71
2018-05-27T22:07:46.947Z,86.65
2018-05-27T22:10:15.982Z,87.66
2018-05-27T22:12:44.230Z,88.22
2018-05-27T22:15:12.504Z,88.28
2018-05-27T22:17:41.535Z,88.28
2018-05-27T22:20:09.804Z,87.87
2018-05-27T22:22:38.065Z,88.64
2018-05-27T22:25:07.257Z,88.66
2018-05-27T22:27:35.976Z,88.64
2018-05-27T22:30:04.234Z,86.85
2018-05-27T22:32:33.650Z,87.21
2018-05-27T22:35:02.669Z,87.95
2018-05-27T22:37:30.928Z,88.96
2018-05-27T22:39:59.955Z,89.15
2018-05-27T22:42:28.227Z,88.66
2018-05-27T22:44:56.487Z,89.35
2018-05-27T22:47:25.591Z,90.12
2018-05-27T22:49:53.859Z,89.42
2018-05-27T22:52:22.882Z,89.65
2018-05-27T22:54:51.156Z,88.72
2018-05-27T22:57:19.401Z,88.90
2018-05-27T22:59:48.440Z,88.95
2018-05-27T23:02:17.219Z,89.46
2018-05-27T23:04:45.488Z,89.55
2018-05-27T23:07:14.515Z,89.65
2018-05-27T23:09:42.775Z,89.50
2018-05-27T23:12:11.799Z,89.96
2018-05-27T23:14:40.072Z,90.05
2018-05-27T23:17:08.327Z,90.02
2018-05-27T23:19:37.356Z,89.88
2018-05-27T23:22:06.218Z,90.52
2018-05-27T23:24:35.251Z,89.56
2018-05-27T23:27:03.502Z,89.79
2018-05-27T23:29:31.786Z,89.89
2018-05-27T23:32:00.056Z,90.36
2018-05-27T23:34:29.087Z,90.11
2018-05-27T23:36:57.345Z,88.79
2018-05-27T23:39:25.665Z,88.59
2018-05-27T23:41:53.912Z,87.50
2018-05-27T23:44:22.184Z,87.57
2018-05-27T23:46:51.206Z,89.68
2018-05-27T23:49:19.467Z,90.17
2018-05-27T23:51:47.737Z,90.40
2018-05-27T23:54:18.071Z,91.35
2018-05-27T23:56:47.104Z,91.32
2018-05-27T23:59:15.366Z,91.29
